createdAt,value
2022-12-01T00:01:37.329Z,18720.59
2022-12-01T00:04:05.971Z,18726.69
2022-12-01T00:06:34.117Z,18730.75
2022-12-01T00:09:20.462Z,18734.81
2022-12-01T00:11:49.136Z,18724.66
2022-12-01T00:14:17.447Z,18684.00
2022-12-01T00:16:47.257Z,18728.72
2022-12-01T00:19:15.597Z,18716.53
2022-12-01T00:21:43.743Z,18718.56
2022-12-01T00:24:12.946Z,18716.53
2022-12-01T00:26:41.229Z,18747.00
2022-12-01T00:29:10.071Z,18722.63
2022-12-01T00:31:39.557Z,18704.31
2022-12-01T00:34:22.129Z,18726.69
2022-12-01T00:36:50.527Z,18718.56
2022-12-01T00:39:18.746Z,18700.25
2022-12-01T00:41:46.888Z,18692.13
2022-12-01T00:44:14.999Z,18667.75
2022-12-01T00:46:43.109Z,18692.13
2022-12-01T00:49:15.409Z,18688.06
2022-12-01T00:51:43.674Z,18700.25
2022-12-01T00:54:11.774Z,18704.31
2022-12-01T00:56:39.919Z,18667.75
2022-12-01T00:59:08.046Z,18718.56
2022-12-01T01:01:36.172Z,18712.47
2022-12-01T01:04:04.523Z,18716.53
2022-12-01T01:06:34.079Z,18716.53
2022-12-01T01:09:02.219Z,18686.03
2022-12-01T01:11:30.326Z,18692.13
2022-12-01T01:14:00.921Z,18688.06
2022-12-01T01:16:29.238Z,18698.22
2022-12-01T01:18:58.241Z,18675.88
2022-12-01T01:21:27.637Z,18663.69
2022-12-01T01:23:57.968Z,18690.09
2022-12-01T01:26:29.143Z,18663.69
2022-12-01T01:29:00.211Z,18655.56
2022-12-01T01:31:31.283Z,18706.38
2022-12-01T01:33:59.950Z,18708.41
2022-12-01T01:36:28.824Z,18675.88
2022-12-01T01:38:58.533Z,18667.75
2022-12-01T01:41:26.816Z,18724.66
2022-12-01T01:43:58.017Z,18677.91
2022-12-01T01:46:28.756Z,18710.44
2022-12-01T01:49:01.230Z,18684.00
2022-12-01T01:51:35.851Z,18677.91
2022-12-01T01:54:15.629Z,18688.06
2022-12-01T01:56:45.143Z,18700.25
2022-12-01T01:59:20.463Z,18686.03
2022-12-01T02:01:57.155Z,18698.22
2022-12-01T02:04:27.262Z,18690.09
2022-12-01T02:06:56.152Z,18688.06
2022-12-01T02:09:25.760Z,18671.81
2022-12-01T02:12:17.995Z,18696.19
2022-12-01T02:15:14.377Z,18671.81
2022-12-01T02:17:53.531Z,18702.28
2022-12-01T02:21:07.029Z,18671.81
2022-12-01T02:24:44.701Z,18659.63
2022-12-01T02:27:33.228Z,18675.88
2022-12-01T02:30:14.781Z,18708.41
2022-12-01T02:33:06.727Z,18684.00
2022-12-01T02:35:45.856Z,18704.31
2022-12-01T02:38:26.225Z,18684.00
2022-12-01T02:41:07.745Z,18692.13
2022-12-01T02:43:46.034Z,18700.25
2022-12-01T02:46:21.678Z,18677.91
2022-12-01T02:48:56.310Z,18692.13
2022-12-01T02:51:30.255Z,18657.59
2022-12-01T02:54:00.627Z,18694.16
2022-12-01T02:56:29.122Z,18655.56
2022-12-01T02:58:57.471Z,18643.38
2022-12-01T03:01:50.510Z,18679.94
2022-12-01T03:04:57.452Z,18665.72
2022-12-01T03:07:50.308Z,18635.25
2022-12-01T03:10:26.611Z,18667.75
2022-12-01T03:13:10.743Z,18635.25
2022-12-01T03:15:53.449Z,18651.50
2022-12-01T03:18:36.950Z,18681.97
2022-12-01T03:21:15.906Z,18675.88
2022-12-01T03:23:51.337Z,18649.47
2022-12-01T03:26:24.701Z,18688.06
2022-12-01T03:28:57.747Z,18675.88
2022-12-01T03:31:34.061Z,18718.56
2022-12-01T03:34:10.465Z,18708.41
2022-12-01T03:36:44.248Z,18702.28
2022-12-01T03:39:20.132Z,18696.19
2022-12-01T03:41:55.619Z,18706.38
2022-12-01T03:44:32.343Z,18690.09
2022-12-01T03:47:06.483Z,18675.88
2022-12-01T03:49:36.896Z,18675.88
2022-12-01T03:52:20.031Z,18688.06
2022-12-01T03:55:03.071Z,18679.94
2022-12-01T03:57:38.097Z,18696.19
2022-12-01T04:00:08.647Z,18686.03
2022-12-01T04:02:38.024Z,18673.84
2022-12-01T04:05:09.195Z,18671.81
2022-12-01T04:07:39.375Z,18686.03
2022-12-01T04:10:09.602Z,18690.09
2022-12-01T04:12:37.074Z,18667.75
2022-12-01T04:15:10.139Z,18700.25
2022-12-01T04:17:38.972Z,18671.81
2022-12-01T04:20:09.253Z,18679.94
2022-12-01T04:22:38.770Z,18679.94
2022-12-01T04:25:08.830Z,18694.16
2022-12-01T04:27:37.745Z,18675.88
2022-12-01T04:30:08.945Z,18647.44
2022-12-01T04:32:40.764Z,18657.59
2022-12-01T04:35:11.761Z,18649.47
2022-12-01T04:37:41.572Z,18623.06
2022-12-01T04:40:11.193Z,18669.78
2022-12-01T04:42:39.277Z,18647.44
2022-12-01T04:45:08.954Z,18655.56
2022-12-01T04:47:37.057Z,18631.19
2022-12-01T04:50:06.522Z,18679.94
2022-12-01T04:52:38.348Z,18651.50
2022-12-01T04:55:09.317Z,18645.41
2022-12-01T04:57:39.435Z,18655.56
2022-12-01T05:00:13.246Z,18665.72
2022-12-01T05:02:43.286Z,18667.75
2022-12-01T05:05:13.891Z,18610.88
2022-12-01T05:07:42.349Z,18649.47
2022-12-01T05:10:14.186Z,18663.69
2022-12-01T05:12:42.324Z,18675.88
2022-12-01T05:15:11.291Z,18637.28
2022-12-01T05:17:39.473Z,18608.84
2022-12-01T05:20:26.970Z,18614.94
2022-12-01T05:23:08.105Z,18625.09
2022-12-01T05:25:38.455Z,18639.31
2022-12-01T05:28:06.949Z,18594.63
2022-12-01T05:30:35.183Z,18627.13
2022-12-01T05:33:03.386Z,18649.47
2022-12-01T05:35:31.518Z,18663.69
2022-12-01T05:38:04.554Z,18627.13
2022-12-01T05:40:36.015Z,18659.63
2022-12-01T05:43:06.538Z,18631.19
2022-12-01T05:45:35.646Z,18639.31
2022-12-01T05:48:04.507Z,18663.69
2022-12-01T05:50:32.718Z,18614.94
2022-12-01T05:53:00.820Z,18629.16
2022-12-01T05:55:28.941Z,18619.00
2022-12-01T05:57:57.064Z,18610.88
2022-12-01T06:00:26.819Z,18600.72
2022-12-01T06:02:54.919Z,18594.63
2022-12-01T06:05:23.065Z,18606.81
2022-12-01T06:07:51.224Z,18594.63
2022-12-01T06:10:19.631Z,18590.56
2022-12-01T06:12:47.795Z,18627.13
2022-12-01T06:15:15.968Z,18608.84
2022-12-01T06:17:45.567Z,18558.03
2022-12-01T06:20:14.331Z,18584.47
2022-12-01T06:22:42.451Z,18610.88
2022-12-01T06:25:11.676Z,18631.19
2022-12-01T06:27:39.766Z,18594.63
2022-12-01T06:30:10.101Z,18616.97
2022-12-01T06:32:39.559Z,18610.88
2022-12-01T06:35:10.121Z,18606.81
2022-12-01T06:37:38.245Z,18610.88
2022-12-01T06:40:08.502Z,18596.66
2022-12-01T06:42:36.604Z,18610.88
2022-12-01T06:45:05.267Z,18631.19
2022-12-01T06:47:33.418Z,18619.00
2022-12-01T06:50:02.181Z,18629.16
2022-12-01T06:52:31.669Z,18600.72
2022-12-01T06:55:00.195Z,18625.09
2022-12-01T06:57:28.564Z,18596.66
2022-12-01T06:59:57.031Z,18627.13
2022-12-01T07:02:25.519Z,18619.00
2022-12-01T07:04:53.797Z,18616.97
2022-12-01T07:07:21.982Z,18625.09
2022-12-01T07:09:51.792Z,18621.03
2022-12-01T07:12:20.103Z,18598.69
2022-12-01T07:14:48.212Z,18631.19
2022-12-01T07:17:16.327Z,18602.75
2022-12-01T07:19:44.474Z,18608.84
2022-12-01T07:22:12.606Z,18596.66
2022-12-01T07:24:40.698Z,18586.50
2022-12-01T07:27:10.202Z,18586.50
2022-12-01T07:29:38.340Z,18598.69
2022-12-01T07:32:06.871Z,18602.75
2022-12-01T07:34:35.144Z,18592.59
2022-12-01T07:37:03.261Z,18610.88
2022-12-01T07:39:31.397Z,18619.00
2022-12-01T07:41:59.502Z,18602.75
2022-12-01T07:44:28.976Z,18604.78
2022-12-01T07:46:57.180Z,18610.88
2022-12-01T07:49:25.376Z,18602.75
2022-12-01T07:51:53.479Z,18590.56
2022-12-01T07:54:21.890Z,18590.56
2022-12-01T07:56:50.032Z,18584.47
2022-12-01T07:59:18.215Z,18598.69
2022-12-01T08:01:47.708Z,18604.78
2022-12-01T08:04:15.863Z,18580.41
2022-12-01T08:06:44.054Z,18580.41
2022-12-01T08:09:12.191Z,18566.16
2022-12-01T08:11:40.363Z,18621.03
2022-12-01T08:14:08.519Z,18570.22
2022-12-01T08:16:36.652Z,18598.69
2022-12-01T08:19:06.111Z,18580.41
2022-12-01T08:21:34.300Z,18586.50
2022-12-01T08:24:02.470Z,18586.50
2022-12-01T08:26:30.734Z,18566.16
2022-12-01T08:28:58.910Z,18592.59
2022-12-01T08:31:30.196Z,18608.84
2022-12-01T08:33:59.041Z,18602.75
2022-12-01T08:36:28.553Z,18600.72
2022-12-01T08:38:57.164Z,18619.00
2022-12-01T08:41:26.465Z,18592.59
2022-12-01T08:44:08.811Z,18590.56
2022-12-01T08:46:37.684Z,18612.91
2022-12-01T08:49:07.579Z,18602.75
2022-12-01T08:51:37.628Z,18602.75
2022-12-01T08:54:06.313Z,18606.81
2022-12-01T08:56:37.583Z,18625.09
2022-12-01T08:59:06.978Z,18619.00
2022-12-01T09:01:35.793Z,18629.16
2022-12-01T09:04:08.657Z,18576.31
2022-12-01T09:06:42.239Z,18594.63
2022-12-01T09:09:12.991Z,18623.06
2022-12-01T09:11:43.633Z,18610.88
2022-12-01T09:14:12.387Z,18600.72
2022-12-01T09:16:40.596Z,18590.56
2022-12-01T09:19:08.940Z,18612.91
2022-12-01T09:21:39.063Z,18604.78
2022-12-01T09:24:09.630Z,18588.53
2022-12-01T09:26:37.798Z,18619.00
2022-12-01T09:29:08.916Z,18637.28
2022-12-01T09:31:38.183Z,18627.13
2022-12-01T09:34:09.369Z,18643.38
2022-12-01T09:36:39.985Z,18635.25
2022-12-01T09:39:12.460Z,18643.38
2022-12-01T09:41:47.036Z,18643.38
2022-12-01T09:44:31.499Z,18655.56
2022-12-01T09:47:11.233Z,18641.34
2022-12-01T09:49:57.040Z,18647.44
2022-12-01T09:52:30.675Z,18629.16
2022-12-01T09:55:02.231Z,18614.94
2022-12-01T09:57:35.295Z,18633.22
2022-12-01T10:00:13.653Z,18633.22
2022-12-01T10:02:48.866Z,18637.28
2022-12-01T10:05:22.891Z,18625.09
2022-12-01T10:07:59.824Z,18649.47
2022-12-01T10:10:34.246Z,18635.25
2022-12-01T10:13:02.562Z,18657.59
2022-12-01T10:15:44.601Z,18651.50
2022-12-01T10:18:32.760Z,18657.59
2022-12-01T10:21:15.403Z,18625.09
2022-12-01T10:24:17.564Z,18641.34
2022-12-01T10:26:56.646Z,18681.97
2022-12-01T10:29:37.206Z,18645.41
2022-12-01T10:32:18.234Z,18649.47
2022-12-01T10:34:47.854Z,18639.31
2022-12-01T10:37:21.720Z,18651.50
2022-12-01T10:39:54.566Z,18619.00
2022-12-01T10:42:31.844Z,18645.41
2022-12-01T10:45:04.701Z,18667.75
2022-12-01T10:47:33.124Z,18667.75
2022-12-01T10:50:01.231Z,18655.56
2022-12-01T10:52:39.019Z,18671.81
2022-12-01T10:55:29.260Z,18655.56
2022-12-01T10:58:06.199Z,18633.22
2022-12-01T11:03:34.424Z,18684.00
2022-12-01T11:06:07.097Z,18679.94
2022-12-01T11:08:42.359Z,18675.88
2022-12-01T11:11:29.015Z,18667.75
2022-12-01T11:14:01.662Z,18661.66
2022-12-01T11:16:39.159Z,18696.19
2022-12-01T11:19:26.594Z,18684.00
2022-12-01T11:21:58.832Z,18627.13
2022-12-01T11:24:40.190Z,18700.25
2022-12-01T11:27:18.304Z,18698.22
2022-12-01T11:29:50.595Z,18720.59
2022-12-01T11:32:25.283Z,18669.78
2022-12-01T11:34:59.471Z,18684.00
2022-12-01T11:37:33.382Z,18659.63
2022-12-01T11:40:14.886Z,18655.56
2022-12-01T11:42:51.272Z,18671.81
2022-12-01T11:45:33.306Z,18635.25
2022-12-01T11:48:06.358Z,18653.53
2022-12-01T11:50:38.416Z,18665.72
2022-12-01T11:53:29.634Z,18661.66
2022-12-01T11:56:18.675Z,18649.47
2022-12-01T11:58:51.121Z,18633.22
2022-12-01T12:01:39.475Z,18665.72
2022-12-01T12:04:32.986Z,18659.63
2022-12-01T12:07:15.459Z,18643.38
2022-12-01T12:10:06.668Z,18651.50
2022-12-01T12:12:57.644Z,18667.75
2022-12-01T12:18:39.800Z,18643.38
2022-12-01T12:21:25.870Z,18639.31
2022-12-01T12:24:23.533Z,18643.38
2022-12-01T12:27:04.335Z,18633.22
2022-12-01T12:29:54.285Z,18627.13
2022-12-01T12:32:46.930Z,18659.63
2022-12-01T12:35:36.207Z,18675.88
2022-12-01T12:38:30.352Z,18679.94
2022-12-01T12:41:14.704Z,18651.50
2022-12-01T12:43:59.669Z,18623.06
2022-12-01T12:46:40.915Z,18671.81
2022-12-01T12:49:32.949Z,18665.72
2022-12-01T12:52:08.973Z,18686.03
2022-12-01T12:54:47.163Z,18649.47
2022-12-01T12:57:27.266Z,18692.13
2022-12-01T13:00:01.998Z,18669.78
2022-12-01T13:02:40.627Z,18679.94
2022-12-01T13:05:19.413Z,18623.06
2022-12-01T13:07:53.347Z,18667.75
2022-12-01T13:10:33.559Z,18681.97
2022-12-01T13:13:18.339Z,18655.56
2022-12-01T13:15:49.310Z,18665.72
2022-12-01T13:18:33.874Z,18651.50
2022-12-01T13:21:06.603Z,18663.69
2022-12-01T13:23:38.644Z,18665.72
2022-12-01T13:26:11.077Z,18659.63
2022-12-01T13:28:45.613Z,18659.63
2022-12-01T13:31:17.071Z,18659.63
2022-12-01T13:33:58.943Z,18673.84
2022-12-01T13:36:46.374Z,18681.97
2022-12-01T13:39:21.759Z,18661.66
2022-12-01T13:42:03.220Z,18627.13
2022-12-01T13:44:40.058Z,18663.69
2022-12-01T13:47:39.506Z,18671.81
2022-12-01T13:50:57.369Z,18688.06
2022-12-01T13:53:31.291Z,18698.22
2022-12-01T13:56:39.731Z,18651.50
2022-12-01T13:59:42.095Z,18629.16
2022-12-01T14:02:21.345Z,18671.81
2022-12-01T14:04:50.366Z,18677.91
2022-12-01T14:07:36.775Z,18692.13
2022-12-01T14:10:28.316Z,18665.72
2022-12-01T14:13:03.389Z,18635.25
2022-12-01T14:15:40.244Z,18651.50
2022-12-01T14:18:32.983Z,18639.31
2022-12-01T14:21:03.136Z,18633.22
2022-12-01T14:23:34.722Z,18655.56
2022-12-01T14:26:19.546Z,18663.69
2022-12-01T14:29:30.636Z,18614.94
2022-12-01T14:32:22.335Z,18667.75
2022-12-01T14:35:11.278Z,18635.25
2022-12-01T14:37:49.329Z,18679.94
2022-12-01T14:40:25.866Z,18639.31
2022-12-01T14:43:16.324Z,18639.31
2022-12-01T14:45:58.293Z,18653.53
2022-12-01T14:48:38.701Z,18627.13
2022-12-01T14:51:21.801Z,18619.00
2022-12-01T14:53:53.145Z,18643.38
2022-12-01T14:56:23.846Z,18625.09
2022-12-01T14:58:57.007Z,18631.19
2022-12-01T15:01:30.930Z,18667.75
2022-12-01T15:04:02.782Z,18651.50
2022-12-01T15:06:34.094Z,18661.66
2022-12-01T15:12:03.566Z,18655.56
2022-12-01T15:14:36.760Z,18631.19
2022-12-01T15:17:08.836Z,18643.38
2022-12-01T15:19:40.479Z,18659.63
2022-12-01T15:22:15.661Z,18643.38
2022-12-01T15:24:44.990Z,18669.78
2022-12-01T15:27:28.580Z,18606.81
2022-12-01T15:30:03.320Z,18641.34
2022-12-01T15:32:37.703Z,18631.19
2022-12-01T15:35:11.221Z,18647.44
2022-12-01T15:37:44.882Z,18610.88
2022-12-01T15:43:17.002Z,18641.34
2022-12-01T15:45:55.449Z,18616.97
2022-12-01T15:48:31.549Z,18625.09
2022-12-01T15:51:18.241Z,18651.50
2022-12-01T15:53:53.702Z,18598.69
2022-12-01T15:56:28.559Z,18647.44
2022-12-01T15:59:05.963Z,18619.00
2022-12-01T16:01:37.473Z,18604.78
2022-12-01T16:04:16.584Z,18604.78
2022-12-01T16:06:56.725Z,18592.59
2022-12-01T16:09:32.294Z,18639.31
2022-12-01T16:12:25.623Z,18614.94
2022-12-01T16:15:04.122Z,18623.06
2022-12-01T16:17:46.279Z,18594.63
2022-12-01T16:20:26.959Z,18639.31
2022-12-01T16:23:00.896Z,18631.19
2022-12-01T16:25:38.049Z,18647.44
2022-12-01T16:28:08.468Z,18598.69
2022-12-01T16:30:40.369Z,18610.88
2022-12-01T16:33:18.050Z,18631.19
2022-12-01T16:35:46.944Z,18641.34
2022-12-01T16:38:20.501Z,18629.16
2022-12-01T16:40:50.743Z,18633.22
2022-12-01T16:43:22.796Z,18635.25
2022-12-01T16:46:00.385Z,18590.56
2022-12-01T16:48:30.521Z,18621.03
2022-12-01T16:51:04.698Z,18606.81
2022-12-01T16:53:33.169Z,18619.00
2022-12-01T16:56:03.301Z,18602.75
2022-12-01T16:58:31.408Z,18610.88
2022-12-01T17:00:59.790Z,18623.06
2022-12-01T17:03:31.141Z,18602.75
2022-12-01T17:06:01.757Z,18612.91
2022-12-01T17:08:29.832Z,18600.72
2022-12-01T17:10:58.089Z,18598.69
2022-12-01T17:13:26.123Z,18596.66
2022-12-01T17:15:56.295Z,18598.69
2022-12-01T17:18:25.483Z,18612.91
2022-12-01T17:21:03.702Z,18625.09
2022-12-01T17:23:32.739Z,18600.72
2022-12-01T17:26:01.664Z,18598.69
2022-12-01T17:28:29.772Z,18631.19
2022-12-01T17:31:01.708Z,18598.69
2022-12-01T17:33:29.984Z,18631.19
2022-12-01T17:36:03.810Z,18608.84
2022-12-01T17:38:32.043Z,18614.94
2022-12-01T17:41:06.140Z,18606.81
2022-12-01T17:43:35.948Z,18600.72
2022-12-01T17:46:05.860Z,18610.88
2022-12-01T17:48:37.512Z,18602.75
2022-12-01T17:51:08.973Z,18612.91
2022-12-01T17:53:39.359Z,18610.88
2022-12-01T17:56:09.893Z,18627.13
2022-12-01T17:58:38.916Z,18625.09
2022-12-01T18:01:13.199Z,18625.09
2022-12-01T18:03:41.568Z,18596.66
2022-12-01T18:06:11.111Z,18606.81
2022-12-01T18:08:40.198Z,18594.63
2022-12-01T18:11:11.722Z,18614.94
2022-12-01T18:13:41.829Z,18633.22
2022-12-01T18:16:14.194Z,18592.59
2022-12-01T18:18:42.852Z,18578.38
2022-12-01T18:21:15.923Z,18586.50
2022-12-01T18:23:49.218Z,18610.88
2022-12-01T18:26:17.656Z,18586.50
2022-12-01T18:28:45.986Z,18598.69
2022-12-01T18:31:16.730Z,18594.63
2022-12-01T18:33:45.845Z,18600.72
2022-12-01T18:36:19.557Z,18625.09
2022-12-01T18:38:48.397Z,18606.81
2022-12-01T18:41:17.583Z,18625.09
2022-12-01T18:43:46.152Z,18602.75
2022-12-01T18:46:20.113Z,18584.47
2022-12-01T18:48:50.570Z,18602.75
2022-12-01T18:51:21.528Z,18610.88
2022-12-01T18:53:49.634Z,18616.97
2022-12-01T18:56:17.666Z,18588.53
2022-12-01T18:58:45.718Z,18606.81
2022-12-01T19:01:23.730Z,18584.47
2022-12-01T19:03:52.424Z,18596.66
2022-12-01T19:06:21.953Z,18586.50
2022-12-01T19:08:50.291Z,18562.09
2022-12-01T19:11:18.663Z,18584.47
2022-12-01T19:13:47.654Z,18582.44
2022-12-01T19:16:18.119Z,18592.59
2022-12-01T19:18:46.791Z,18582.44
2022-12-01T19:21:18.285Z,18590.56
2022-12-01T19:23:48.851Z,18578.38
2022-12-01T19:26:20.083Z,18553.97
2022-12-01T19:28:49.648Z,18582.44
2022-12-01T19:31:20.681Z,18602.75
2022-12-01T19:33:48.870Z,18576.31
2022-12-01T19:36:19.753Z,18590.56
2022-12-01T19:38:49.776Z,18616.97
2022-12-01T19:41:20.558Z,18570.22
2022-12-01T19:43:49.427Z,18582.44
2022-12-01T19:46:20.963Z,18549.91
2022-12-01T19:48:55.030Z,18586.50
2022-12-01T19:51:25.529Z,18562.09
2022-12-01T19:53:55.756Z,18556.00
2022-12-01T19:56:24.590Z,18586.50
2022-12-01T19:58:52.814Z,18543.81
2022-12-01T20:01:22.341Z,18572.25
2022-12-01T20:03:53.705Z,18570.22
2022-12-01T20:06:24.694Z,18612.91
2022-12-01T20:08:56.059Z,18598.69
2022-12-01T20:11:25.198Z,18574.28
2022-12-01T20:13:53.804Z,18596.66
2022-12-01T20:16:24.549Z,18586.50
2022-12-01T20:18:54.171Z,18590.56
2022-12-01T20:21:25.093Z,18568.19
2022-12-01T20:23:58.684Z,18582.44
2022-12-01T20:26:31.265Z,18562.09
2022-12-01T20:29:03.718Z,18576.31
2022-12-01T20:31:34.133Z,18612.91
2022-12-01T20:34:05.979Z,18586.50
2022-12-01T20:36:34.658Z,18625.09
2022-12-01T20:39:06.092Z,18560.06
2022-12-01T20:41:35.034Z,18578.38
2022-12-01T20:44:07.130Z,18562.09
2022-12-01T20:46:37.287Z,18574.28
2022-12-01T20:49:06.223Z,18574.28
2022-12-01T20:51:34.705Z,18606.81
2022-12-01T20:56:56.664Z,18558.03
2022-12-01T20:59:24.998Z,18562.09
2022-12-01T21:01:53.188Z,18566.16
2022-12-01T21:04:21.580Z,18570.22
2022-12-01T21:06:50.776Z,18590.56
2022-12-01T21:09:20.247Z,18572.25
2022-12-01T21:12:09.196Z,18582.44
2022-12-01T21:14:42.839Z,18606.81
2022-12-01T21:17:29.296Z,18570.22
2022-12-01T21:20:06.939Z,18592.59
2022-12-01T21:22:36.586Z,18570.22
2022-12-01T21:25:15.759Z,18574.28
2022-12-01T21:27:44.107Z,18616.97
2022-12-01T21:30:19.211Z,18610.88
2022-12-01T21:32:48.697Z,18556.00
2022-12-01T21:35:20.375Z,18598.69
2022-12-01T21:37:50.051Z,18572.25
2022-12-01T21:40:22.760Z,18564.13
2022-12-01T21:42:51.894Z,18582.44
2022-12-01T21:45:27.752Z,18574.28
2022-12-01T21:48:02.270Z,18614.94
2022-12-01T21:50:31.234Z,18610.88
2022-12-01T21:52:59.343Z,18614.94
2022-12-01T21:55:39.409Z,18596.66
2022-12-01T21:58:30.113Z,18582.44
2022-12-01T22:01:00.203Z,18584.47
2022-12-01T22:03:34.450Z,18588.53
2022-12-01T22:06:29.191Z,18576.31
2022-12-01T22:09:03.280Z,18568.19
2022-12-01T22:11:32.892Z,18582.44
2022-12-01T22:14:13.754Z,18578.38
2022-12-01T22:16:44.960Z,18564.13
2022-12-01T22:19:27.632Z,18600.72
2022-12-01T22:22:12.915Z,18572.25
2022-12-01T22:24:44.030Z,18578.38
2022-12-01T22:27:32.660Z,18570.22
2022-12-01T22:30:11.622Z,18610.88
2022-12-01T22:32:52.087Z,18549.91
2022-12-01T22:35:40.228Z,18633.22
2022-12-01T22:38:35.114Z,18602.75
2022-12-01T22:41:07.621Z,18574.28
2022-12-01T22:43:56.182Z,18596.66
2022-12-01T22:46:28.199Z,18584.47
2022-12-01T22:49:00.188Z,18602.75
2022-12-01T22:51:48.988Z,18594.63
2022-12-01T22:54:38.604Z,18602.75
2022-12-01T22:57:26.299Z,18590.56
2022-12-01T22:59:56.333Z,18570.22
2022-12-01T23:02:30.617Z,18604.78
2022-12-01T23:05:02.097Z,18580.41
2022-12-01T23:07:36.679Z,18564.13
2022-12-01T23:10:15.487Z,18574.28
2022-12-01T23:12:45.479Z,18570.22
2022-12-01T23:15:32.437Z,18578.38
2022-12-01T23:18:12.686Z,18574.28
2022-12-01T23:20:43.558Z,18590.56
2022-12-01T23:23:16.491Z,18551.94
2022-12-01T23:25:46.478Z,18576.31
2022-12-01T23:28:15.863Z,18566.16
2022-12-01T23:30:48.624Z,18562.09
2022-12-01T23:33:22.251Z,18541.78
2022-12-01T23:35:58.227Z,18570.22
2022-12-01T23:38:31.855Z,18586.50
2022-12-01T23:41:05.438Z,18570.22
2022-12-01T23:43:39.979Z,18570.22
2022-12-01T23:46:14.884Z,18574.28
2022-12-01T23:48:48.137Z,18568.19
2022-12-01T23:51:23.976Z,18547.88
2022-12-01T23:53:53.764Z,18584.47
2022-12-01T23:56:25.860Z,18545.84
2022-12-01T23:58:56.850Z,18568.19
